.
WxDataArchive / Data Records for 2010-05-06
2010-05-05 May 2010 2010-05-07

Data Records for Thursday, 06 May 2010

Time	Temp	Chill	HIndex	Humid	Dewpt	 Wind 	HiWind	WindDir	Rain 	Barom 
-----	----	-----	------	-----	-----	------	------	-------	-----	----- 
00:00	61.8	61.8	61.8	63	49.1	0	1	270	0.00	29.787 
00:05	62.0	62.0	62.0	63	49.3	0	2	270	0.00	29.787 
00:10	62.0	62.0	62.0	62	48.8	0	1	270	0.00	29.787 
00:15	62.0	62.0	62.0	62	48.8	0	2	270	0.00	29.786 
00:20	62.0	62.0	62.0	61	48.4	0	1	270	0.00	29.786 
00:25	61.8	61.8	61.8	61	48.2	0	1	270	0.00	29.786 
00:30	61.6	61.6	61.6	61	48.0	0	1	270	0.00	29.792 
00:35	61.3	61.3	61.3	61	47.7	0	1	270	0.00	29.792 
00:40	61.0	61.0	61.0	61	47.5	0	1	270	0.00	29.792 
00:45	60.7	60.7	60.7	60	46.7	0	1	270	0.00	29.793 
00:50	60.5	60.5	60.5	56	44.7	0	1	270	0.00	29.793 
00:55	60.7	60.7	60.7	52	43.0	1	3	270	0.00	29.793 
01:00	60.9	60.9	60.9	50	42.1	0	1	270	0.00	29.801 
01:05	60.7	60.7	60.7	50	41.9	0	1	270	0.00	29.801 
01:10	60.4	60.4	60.4	50	41.7	0	2	270	0.00	29.801 
01:15	60.1	60.1	60.1	50	41.4	0	1	270	0.00	29.803 
01:20	59.9	59.9	59.9	48	40.2	0	2	270	0.00	29.803 
01:25	59.8	59.8	59.8	47	39.5	0	3	270	0.00	29.803 
01:30	59.9	59.9	59.9	46	39.1	0	2	270	0.00	29.812 
01:35	59.9	59.9	59.9	46	39.1	0	2	270	0.00	29.812 
01:40	59.9	59.9	59.9	45	38.5	0	2	270	0.00	29.812 
01:45	59.8	59.8	59.8	46	39.0	0	1	270	0.00	29.814 
01:50	59.5	59.5	59.5	46	38.7	0	2	270	0.00	29.814 
01:55	59.3	59.3	59.3	46	38.5	0	2	270	0.00	29.814 
02:00	59.2	59.2	59.2	46	38.4	0	1	270	0.00	29.817 
02:05	59.0	59.0	59.0	46	38.2	0	1	270	0.00	29.817 
02:10	58.7	58.7	58.7	47	38.5	0	1	270	0.00	29.817 
02:15	58.6	58.6	58.6	48	39.0	0	2	270	0.00	29.817 
02:20	58.3	58.3	58.3	47	38.2	0	2	270	0.00	29.817 
02:25	58.1	58.1	58.1	47	38.0	0	2	270	0.00	29.817 
02:30	58.1	58.1	58.1	47	38.0	1	2	270	0.00	29.820 
02:35	58.1	58.1	58.1	46	37.4	1	2	270	0.00	29.820 
02:40	58.0	58.0	58.0	45	36.8	1	2	270	0.00	29.820 
02:45	58.0	58.0	58.0	43	35.6	1	4	270	0.00	29.827 
02:50	58.0	58.0	58.0	43	35.6	1	3	270	0.00	29.827 
02:55	58.1	58.1	58.1	43	35.7	1	3	315	0.00	29.827 
03:00	57.8	57.8	57.8	43	35.5	1	2	315	0.00	29.834 
03:05	57.6	57.6	57.6	43	35.3	1	3	315	0.00	29.834 
03:10	57.5	57.5	57.5	43	35.2	1	3	315	0.00	29.834 
03:15	57.3	57.3	57.3	44	35.6	1	3	315	0.00	29.839 
03:20	57.0	57.0	57.0	44	35.3	1	4	270	0.00	29.839 
03:25	56.9	56.9	56.9	44	35.2	1	3	292	0.00	29.839 
03:30	56.7	56.7	56.7	45	35.6	0	2	292	0.00	29.844 
03:35	56.6	56.6	56.6	44	34.9	1	3	292	0.00	29.844 
03:40	56.5	56.5	56.5	45	35.4	0	2	315	0.00	29.844 
03:45	56.2	56.2	56.2	46	35.7	0	3	315	0.00	29.848 
03:50	55.9	55.9	55.9	47	36.0	0	1	315	0.00	29.848 
03:55	55.7	55.7	55.7	47	35.8	1	3	315	0.00	29.848 
04:00	55.6	55.6	55.6	47	35.7	0	2	315	0.00	29.853 
04:05	55.4	55.4	55.4	47	35.5	1	2	315	0.00	29.853 
04:10	55.3	55.3	55.3	47	35.4	0	2	315	0.00	29.853 
04:15	55.1	55.1	55.1	48	35.8	0	1	315	0.00	29.863 
04:20	54.8	54.8	54.8	49	36.0	0	2	292	0.00	29.863 
04:25	54.8	54.8	54.8	49	36.0	1	4	315	0.00	29.863 
04:30	54.7	54.7	54.7	50	36.4	1	3	315	0.00	29.871 
04:35	54.5	54.5	54.5	50	36.2	1	2	315	0.00	29.871 
04:40	54.4	54.4	54.4	50	36.2	0	2	315	0.00	29.871 
04:45	54.2	54.2	54.2	51	36.5	1	4	315	0.00	29.874 
04:50	54.1	54.1	54.1	51	36.4	0	2	270	0.00	29.874 
04:55	54.1	54.1	54.1	51	36.4	0	3	270	0.00	29.874 
05:00	53.9	53.9	53.9	52	36.7	1	3	270	0.00	29.875 
05:05	53.6	53.6	53.6	52	36.4	0	2	270	0.00	29.875 
05:10	53.5	53.5	53.5	53	36.8	0	2	270	0.00	29.875 
05:15	53.3	53.3	53.3	53	36.6	0	1	270	0.00	29.881 
05:20	53.2	53.2	53.2	54	37.0	0	2	270	0.00	29.881 
05:25	53.1	53.1	53.1	54	36.9	0	2	270	0.00	29.881 
05:30	52.9	52.9	52.9	54	36.7	0	1	270	0.00	29.888 
05:35	52.8	52.8	52.8	55	37.1	0	1	270	0.00	29.888 
05:40	52.5	52.5	52.5	55	36.8	0	2	270	0.00	29.888 
05:45	52.3	52.3	52.3	56	37.1	0	2	270	0.00	29.893 
05:50	52.3	52.3	52.3	56	37.1	0	1	270	0.00	29.893 
05:55	52.0	52.0	52.0	57	37.2	0	1	270	0.00	29.893 
06:00	51.9	51.9	51.9	57	37.1	0	1	270	0.00	29.899 
06:05	51.7	51.7	51.7	58	37.4	0	1	270	0.00	29.899 
06:10	51.6	51.6	51.6	58	37.3	0	1	270	0.00	29.899 
06:15	51.3	51.3	51.3	59	37.5	0	0	---	0.00	29.915 
06:20	51.0	51.0	51.0	60	37.6	0	1	270	0.00	29.915 
06:25	50.8	50.8	50.8	60	37.4	0	1	270	0.00	29.915 
06:30	50.8	50.8	50.8	61	37.8	0	1	270	0.00	29.918 
06:35	51.0	51.0	51.0	60	37.6	0	2	270	0.00	29.918 
06:40	51.0	51.0	51.0	60	37.6	0	0	---	0.00	29.918 
06:45	50.8	50.8	50.8	61	37.8	0	0	---	0.00	29.927 
06:50	50.5	50.5	50.5	61	37.6	0	1	270	0.00	29.927 
06:55	50.5	50.5	50.5	62	38.0	0	1	270	0.00	29.927 
07:00	50.5	50.5	50.5	62	38.0	0	1	270	0.00	29.933 
07:05	50.5	50.5	50.5	62	38.0	0	0	---	0.00	29.933 
07:10	50.4	50.4	50.4	62	37.9	0	1	270	0.00	29.933 
07:15	50.5	50.5	50.5	62	38.0	0	1	270	0.00	29.939 
07:20	50.5	50.5	50.5	63	38.4	0	0	---	0.00	29.939 
07:25	50.7	50.7	50.7	62	38.2	0	1	270	0.00	29.939 
07:30	51.0	51.0	51.0	62	38.4	0	2	270	0.00	29.947 
07:35	51.3	51.3	51.3	62	38.7	0	2	270	0.00	29.947 
07:40	51.6	51.6	51.6	60	38.2	0	1	270	0.00	29.947 
07:45	52.0	52.0	52.0	60	38.5	0	1	270	0.00	29.955 
07:50	52.3	52.3	52.3	59	38.4	1	4	338	0.00	29.955 
07:55	52.8	52.8	52.8	58	38.4	0	1	338	0.00	29.955 
08:00	53.1	53.1	53.1	58	38.7	1	4	338	0.00	29.959 
08:05	53.2	53.2	53.2	59	39.2	0	3	248	0.00	29.959 
08:10	53.5	53.5	53.5	58	39.1	0	2	248	0.00	29.959 
08:15	53.6	53.6	53.6	58	39.2	1	3	248	0.00	29.959 
08:20	53.6	53.6	53.6	58	39.2	1	4	292	0.00	29.959 
08:25	53.9	53.9	53.9	58	39.5	0	2	292	0.00	29.959 
08:30	54.2	54.2	54.2	58	39.7	0	2	292	0.00	29.961 
08:35	54.4	54.4	54.4	57	39.5	1	3	292	0.00	29.961 
08:40	54.7	54.7	54.7	59	40.7	0	1	292	0.00	29.961 
08:45	55.0	55.0	55.0	57	40.0	1	3	292	0.00	29.965 
08:50	55.0	55.0	55.0	58	40.5	1	4	292	0.00	29.965 
08:55	55.1	55.1	55.1	56	39.7	1	4	270	0.00	29.965 
09:00	55.3	55.3	55.3	57	40.3	1	3	292	0.00	29.973 
09:05	55.3	55.3	55.3	57	40.3	1	3	292	0.00	29.973 
09:10	55.3	55.3	55.3	55	39.4	1	4	292	0.00	29.973 
09:15	55.6	55.6	55.6	58	41.1	1	2	292	0.00	29.981 
09:20	55.9	55.9	55.9	55	40.0	1	4	292	0.00	29.981 
09:25	56.0	56.0	56.0	55	40.1	1	4	292	0.00	29.981 
09:30	56.3	56.3	56.3	54	39.9	1	4	315	0.00	29.986 
09:35	56.2	56.2	56.2	54	39.8	2	5	315	0.00	29.986 
09:40	56.2	56.2	56.2	56	40.7	1	4	338	0.00	29.986 
09:45	56.2	56.2	56.2	54	39.8	2	4	270	0.00	29.992 
09:50	56.3	56.3	56.3	54	39.9	1	3	270	0.00	29.992 
09:55	56.9	56.9	56.9	57	41.8	1	3	292	0.00	29.992 
10:00	57.3	57.3	57.3	55	41.3	1	3	292	0.00	29.989 
10:05	58.0	58.0	58.0	53	41.0	1	2	292	0.00	29.989 
10:10	58.3	58.3	58.3	52	40.8	1	3	292	0.00	29.989 
10:15	58.3	58.3	58.3	49	39.2	2	4	292	0.00	29.993 
10:20	58.3	58.3	58.3	51	40.3	2	6	270	0.00	29.993 
10:25	58.1	58.1	58.1	48	38.5	3	5	270	0.00	29.993 
10:30	58.0	58.0	58.0	54	41.4	2	5	292	0.00	30.003 
10:35	58.4	58.4	58.4	52	40.8	1	4	292	0.00	30.003 
10:40	59.0	59.0	59.0	54	42.4	1	3	292	0.00	30.003 
10:45	59.5	59.5	59.5	48	39.8	1	4	292	0.00	30.001 
10:50	59.3	59.3	59.3	49	40.1	2	5	292	0.00	30.001 
10:55	59.3	59.3	59.3	49	40.1	2	4	315	0.00	30.001 
11:00	59.3	59.3	59.3	48	39.6	2	6	270	0.00	30.006 
11:05	59.3	59.3	59.3	48	39.6	2	5	315	0.00	30.006 
11:10	59.8	59.8	59.8	49	40.6	1	5	270	0.00	30.006 
11:15	60.2	60.2	60.2	49	41.0	2	5	270	0.00	30.006 
11:20	60.2	60.2	60.2	47	39.9	1	5	292	0.00	30.006 
11:25	60.4	60.4	60.4	48	40.6	2	5	270	0.00	30.006 
11:30	60.4	60.4	60.4	51	42.2	1	3	338	0.00	30.015 
11:35	60.7	60.7	60.7	48	40.9	1	3	338	0.00	30.015 
11:40	61.2	61.2	61.2	48	41.3	1	4	270	0.00	30.015 
11:45	60.9	60.9	60.9	45	39.4	1	3	0	0.00	30.009 
11:50	60.7	60.7	60.7	46	39.8	1	4	338	0.00	30.009 
11:55	61.0	61.0	61.0	47	40.6	1	2	338	0.00	30.009 
12:00	61.5	61.5	61.5	49	42.2	1	4	270	0.00	30.009 
12:05	62.0	62.0	62.0	46	41.0	1	4	292	0.00	30.009 
12:10	62.1	62.1	62.1	47	41.6	1	4	315	0.00	30.009 
12:15	62.0	62.0	62.0	44	39.8	1	4	315	0.00	30.016 
12:20	62.3	62.3	62.3	46	41.3	1	3	270	0.00	30.016 
12:25	62.6	62.6	62.6	48	42.6	0	2	338	0.00	30.016 
12:30	62.9	62.9	62.9	48	42.9	1	5	248	0.00	30.013 
12:35	62.9	62.9	62.9	48	42.9	2	4	270	0.00	30.013 
12:40	63.1	63.1	63.1	44	40.8	2	5	248	0.00	30.013 
12:45	63.2	63.2	63.2	45	41.5	1	4	248	0.00	30.014 
12:50	63.1	63.1	63.1	45	41.4	1	5	292	0.00	30.014 
12:55	63.4	63.4	63.4	47	42.8	3	5	248	0.00	30.014 
13:00	63.7	63.7	63.7	48	43.6	1	3	292	0.00	30.009 
13:05	64.0	64.0	64.0	43	41.1	0	2	270	0.00	30.009 
13:10	64.0	64.0	64.0	45	42.2	2	4	270	0.00	30.009 
13:15	63.9	63.9	63.9	43	41.0	1	4	292	0.00	30.013 
13:20	64.2	64.2	64.2	46	43.0	1	4	292	0.00	30.013 
13:25	64.5	64.5	64.5	44	42.1	1	4	292	0.00	30.013 
13:30	64.5	64.5	64.5	44	42.1	1	3	270	0.00	30.012 
13:35	64.3	64.3	64.3	43	41.3	1	4	292	0.00	30.012 
13:40	64.7	64.7	64.7	45	42.9	1	4	292	0.00	30.012 
13:45	64.8	64.8	64.8	43	41.8	1	3	315	0.00	30.005 
13:50	64.8	64.8	64.8	43	41.8	1	4	315	0.00	30.005 
13:55	65.2	65.2	65.2	43	42.1	1	4	270	0.00	30.005 
14:00	65.5	65.5	65.5	43	42.4	2	4	270	0.00	30.010 
14:05	65.5	65.5	65.5	41	41.2	1	3	0	0.00	30.010 
14:10	65.2	65.2	65.2	40	40.3	1	4	338	0.00	30.010 
14:15	65.5	65.5	65.5	44	43.0	0	1	338	0.00	30.014 
14:20	65.8	65.8	65.8	40	40.8	1	3	338	0.00	30.014 
14:25	65.8	65.8	65.8	40	40.8	1	3	338	0.00	30.014 
14:30	65.8	65.8	65.8	42	42.1	1	3	338	0.00	30.012 
14:35	66.1	66.1	66.1	42	42.3	1	2	315	0.00	30.012 
14:40	66.1	66.1	66.1	39	40.4	1	2	315	0.00	30.012 
14:45	66.6	66.6	66.6	40	41.5	1	3	225	0.00	30.010 
14:50	67.3	67.3	67.3	41	42.8	1	2	225	0.00	30.010 
14:55	67.3	67.3	67.3	39	41.5	2	6	270	0.00	30.010 
15:00	67.1	67.1	67.1	42	43.2	1	3	315	0.00	30.007 
15:05	67.1	67.1	67.1	40	42.0	1	4	292	0.00	30.007 
15:10	67.1	67.1	67.1	41	42.6	2	6	292	0.00	30.007 
15:15	67.1	67.1	67.1	42	43.2	1	3	248	0.00	30.010 
15:20	67.3	67.3	67.3	40	42.1	1	3	338	0.00	30.010 
15:25	67.8	67.8	67.8	38	41.3	2	6	270	0.00	30.010 
15:30	68.1	68.1	68.1	39	42.2	1	3	270	0.00	30.007 
15:35	68.1	68.1	68.1	38	41.5	0	2	270	0.00	30.007 
15:40	68.3	68.3	68.3	43	44.9	0	1	270	0.00	30.007 
15:45	68.8	68.8	68.8	38	42.1	0	3	270	0.00	30.003 
15:50	68.4	68.4	68.4	36	40.4	2	3	315	0.00	30.003 
15:55	67.9	67.9	67.9	40	42.7	1	4	315	0.00	30.003 
16:00	67.9	67.9	67.9	39	42.0	1	3	292	0.00	30.007 
16:05	68.1	68.1	68.1	38	41.5	0	3	292	0.00	30.007 
16:10	68.4	68.4	68.4	38	41.8	1	3	0	0.00	30.007 
16:15	68.6	68.6	68.6	36	40.6	0	1	338	0.00	30.007 
16:20	68.6	68.6	68.6	40	43.3	1	3	338	0.00	30.007 
16:25	68.6	68.6	68.6	35	39.8	1	4	248	0.00	30.007 
16:30	68.6	68.6	68.6	39	42.6	1	3	248	0.00	30.003 
16:35	68.6	68.6	68.6	41	44.0	2	5	270	0.00	30.003 
16:40	68.3	68.3	68.3	36	40.3	1	3	270	0.00	30.003 
16:45	68.4	68.4	68.4	37	41.1	0	2	292	0.00	29.999 
16:50	69.1	69.1	69.1	39	43.1	0	1	292	0.00	29.999 
16:55	68.9	68.9	68.9	37	41.5	1	3	315	0.00	29.999 
17:00	68.6	68.6	68.6	36	40.6	1	3	315	0.00	29.995 
17:05	68.4	68.4	68.4	37	41.1	2	4	292	0.00	29.995 
17:10	68.3	68.3	68.3	39	42.4	1	3	315	0.00	29.995 
17:15	68.4	68.4	68.4	36	40.4	0	2	315	0.00	29.999 
17:20	68.4	68.4	68.4	36	40.4	0	2	315	0.00	29.999 
17:25	68.3	68.3	68.3	36	40.3	0	3	315	0.00	29.999 
17:30	68.3	68.3	68.3	37	41.0	0	2	292	0.00	29.993 
17:35	68.8	68.8	68.8	37	41.5	0	2	292	0.00	29.993 
17:40	68.8	68.8	68.8	34	39.3	1	2	292	0.00	29.993 
17:45	68.3	68.3	68.3	36	40.3	1	3	292	0.00	29.991 
17:50	67.4	67.4	67.4	37	40.2	0	1	292	0.00	29.991 
17:55	67.6	67.6	67.6	37	40.4	0	2	292	0.00	29.991 
18:00	68.1	68.1	68.1	36	40.1	0	1	292	0.00	29.991 
18:05	67.9	67.9	67.9	36	40.0	1	3	292	0.00	29.991 
18:10	67.6	67.6	67.6	37	40.4	0	2	292	0.00	29.991 
18:15	67.8	67.8	67.8	39	41.9	1	3	292	0.00	29.992 
18:20	67.8	67.8	67.8	35	39.1	0	2	292	0.00	29.992 
18:25	67.6	67.6	67.6	38	41.1	0	1	292	0.00	29.992 
18:30	67.6	67.6	67.6	41	43.1	0	1	292	0.00	29.991 
18:35	67.6	67.6	67.6	37	40.4	0	1	292	0.00	29.991 
18:40	67.6	67.6	67.6	38	41.1	0	2	292	0.00	29.991 
18:45	67.4	67.4	67.4	38	40.9	0	1	292	0.00	29.990 
18:50	67.3	67.3	67.3	40	42.1	0	1	292	0.00	29.990 
18:55	67.3	67.3	67.3	38	40.8	0	1	292	0.00	29.990 
19:00	67.1	67.1	67.1	38	40.6	0	1	292	0.00	29.989 
19:05	66.9	66.9	66.9	39	41.1	0	1	292	0.00	29.989 
19:10	66.8	66.8	66.8	38	40.4	0	1	292	0.00	29.989 
19:15	66.8	66.8	66.8	38	40.4	0	2	292	0.00	29.990 
19:20	66.6	66.6	66.6	39	40.9	0	0	---	0.00	29.990 
19:25	66.4	66.4	66.4	37	39.3	0	3	315	0.00	29.990 
19:30	66.1	66.1	66.1	39	40.4	0	1	315	0.00	29.990 
19:35	65.8	65.8	65.8	40	40.8	0	0	---	0.00	29.990 
19:40	65.6	65.6	65.6	40	40.6	0	2	315	0.00	29.990 
19:45	65.3	65.3	65.3	43	42.2	0	0	---	0.00	29.987 
19:50	65.0	65.0	65.0	42	41.3	0	0	---	0.00	29.987 
19:55	64.7	64.7	64.7	43	41.7	0	0	---	0.00	29.987 
20:00	64.2	64.2	64.2	43	41.2	0	0	---	0.00	29.979 
20:05	64.0	64.0	64.0	46	42.8	0	1	22	0.00	29.979 
20:10	63.7	63.7	63.7	46	42.5	0	0	---	0.00	29.979 
20:15	63.2	63.2	63.2	46	42.1	0	0	---	0.00	29.977 
20:20	62.9	62.9	62.9	46	41.8	0	0	---	0.00	29.977 
20:25	62.7	62.7	62.7	49	43.3	0	0	---	0.00	29.977 
20:30	62.4	62.4	62.4	49	43.0	0	0	---	0.00	29.979 
20:35	62.1	62.1	62.1	50	43.2	0	0	---	0.00	29.979 
20:40	61.8	61.8	61.8	50	43.0	0	0	---	0.00	29.979 
20:45	61.3	61.3	61.3	50	42.5	0	0	---	0.00	29.972 
20:50	61.2	61.2	61.2	51	42.9	0	1	22	0.00	29.972 
20:55	60.7	60.7	60.7	52	43.0	0	0	---	0.00	29.972 
21:00	60.4	60.4	60.4	52	42.7	0	0	---	0.00	29.974 
21:05	60.1	60.1	60.1	53	42.9	0	0	---	0.00	29.974 
21:10	59.9	59.9	59.9	53	42.7	0	0	---	0.00	29.974 
21:15	59.6	59.6	59.6	54	42.9	0	0	---	0.00	29.984 
21:20	59.5	59.5	59.5	54	42.8	0	1	22	0.00	29.984 
21:25	59.3	59.3	59.3	55	43.1	0	0	---	0.00	29.984 
21:30	59.0	59.0	59.0	56	43.3	0	0	---	0.00	29.982 
21:35	58.9	58.9	58.9	56	43.2	0	0	---	0.00	29.982 
21:40	58.7	58.7	58.7	56	43.0	0	0	---	0.00	29.982 
21:45	58.6	58.6	58.6	57	43.4	0	0	---	0.00	29.989 
21:50	58.3	58.3	58.3	58	43.6	0	0	---	0.00	29.989 
21:55	58.1	58.1	58.1	58	43.4	0	0	---	0.00	29.989 
22:00	57.8	57.8	57.8	58	43.1	0	0	---	0.00	29.995 
22:05	57.6	57.6	57.6	58	42.9	0	0	---	0.00	29.995 
22:10	57.5	57.5	57.5	59	43.3	0	0	---	0.00	29.995 
22:15	57.2	57.2	57.2	60	43.4	0	0	---	0.00	29.993 
22:20	56.9	56.9	56.9	60	43.2	0	0	---	0.00	29.993 
22:25	56.6	56.6	56.6	61	43.3	0	0	---	0.00	29.993 
22:30	56.3	56.3	56.3	62	43.4	0	0	---	0.00	29.993 
22:35	56.0	56.0	56.0	63	43.6	0	0	---	0.00	29.993 
22:40	55.7	55.7	55.7	64	43.7	0	0	---	0.00	29.993 
22:45	55.4	55.4	55.4	65	43.8	0	0	---	0.00	29.990 
22:50	55.1	55.1	55.1	65	43.5	0	0	---	0.00	29.990 
22:55	54.8	54.8	54.8	66	43.7	0	0	---	0.00	29.990 
23:00	54.5	54.5	54.5	67	43.8	0	0	---	0.00	29.987 
23:05	54.2	54.2	54.2	68	43.9	0	0	---	0.00	29.987 
23:10	54.1	54.1	54.1	69	44.2	0	0	---	0.00	29.987 
23:15	53.9	53.9	53.9	70	44.3	0	0	---	0.00	29.989 
23:20	53.8	53.8	53.8	71	44.6	0	0	---	0.00	29.989 
23:25	53.6	53.6	53.6	72	44.8	0	0	---	0.00	29.989 
23:30	53.5	53.5	53.5	72	44.7	0	0	---	0.00	30.002 
23:35	53.2	53.2	53.2	72	44.4	0	0	---	0.00	30.002 
23:40	53.1	53.1	53.1	73	44.7	0	0	---	0.00	30.002 
23:45	52.8	52.8	52.8	73	44.4	0	0	---	0.00	29.995 
23:50	52.6	52.6	52.6	73	44.2	0	0	---	0.00	29.995 
23:55	52.3	52.3	52.3	74	44.3	0	0	---	0.00	29.995 

CoCoRaHS
IN-AL-39
A2 Web Hosting
Creative Commons License
GoDaddy
search engine by freefind advanced

loaded 2018-11-16 23:52:44 • last modified 2010-11-18 10:43:29
Privacy PolicyDisclaimer
• wx.awcolley.com is powered by PmWiki v.2002016 •
• all content (unless otherwise noted) © 2018 A W Colley